Time;durP1;ratioP1;P1;durP2;ratioP2;P2;SDS_P1;SDS_P2;PMS_P1;PMS_P2;Temp;Humidity;BMP_temperature;BMP_pressure;BME280_temperature;BME280_humidity;BME280_pressure;Samples;Min_cycle;Max_cycle;Signal;HPM_P1;HPM_P2
2022/10/04 00:02:02;;;;;;;;;;;7.80;99.90;;;;;;4418125;27;10000409;-81
2022/10/04 00:04:40;;;;;;;;;;;7.70;99.90;;;;;;5113535;27;20022;-81
2022/10/04 00:07:14;;;;;;;;;;;7.70;99.90;;;;;;5132172;27;20298;-81
2022/10/04 00:09:50;;;;;;;;;;;7.70;99.90;;;;;;5128231;27;20420;-81
2022/10/04 00:12:35;;;;;;;;;;;7.60;99.90;;;;;;5131381;27;20021;-81
2022/10/04 00:15:04;;;;;;;;;;;7.60;99.90;;;;;;5114694;27;20268;-81
2022/10/04 00:17:31;;;;;;;;;;;7.60;99.90;;;;;;5126811;27;19938;-81
2022/10/04 00:19:57;;;;;;;;;;;7.60;99.90;;;;;;5129873;27;19916;-81
2022/10/04 00:22:29;;;;;;;;;;;7.60;99.90;;;;;;5109309;27;19911;-81
2022/10/04 00:25:07;;;;;;;;;;;7.60;99.90;;;;;;5121702;27;19978;-81
2022/10/04 00:27:36;;;;;;;;;;;7.50;99.90;;;;;;5115259;27;19907;-81
2022/10/04 00:30:01;;;;;;;;;;;7.50;99.90;;;;;;5123370;27;19974;-81
2022/10/04 00:32:30;;;;;;;;;;;7.50;99.90;;;;;;5135289;27;19953;-81
2022/10/04 00:34:56;;;;;;;;;;;7.50;99.90;;;;;;5119803;27;20481;-81
2022/10/04 00:37:24;;;;;;;;;;;7.50;99.90;;;;;;5114920;27;19912;-81
2022/10/04 00:39:57;;;;;;;;;;;7.50;99.90;;;;;;5121420;27;19907;-81
2022/10/04 00:42:23;;;;;;;;;;;7.50;99.90;;;;;;5122340;27;19936;-81
2022/10/04 00:44:55;;;;;;;;;;;7.60;99.90;;;;;;5114889;27;19911;-80
2022/10/04 00:47:39;;;;;;;;;;;7.60;99.90;;;;;;5112508;27;19930;-81
2022/10/04 00:50:04;;;;;;;;;;;7.60;99.90;;;;;;5117408;27;19915;-80
2022/10/04 00:52:32;;;;;;;;;;;7.60;99.90;;;;;;5117093;27;19912;-81
2022/10/04 00:55:00;;;;;;;;;;;7.70;99.90;;;;;;5124153;27;19946;-80
2022/10/04 00:57:28;;;;;;;;;;;7.80;99.90;;;;;;5124422;27;19993;-81
2022/10/04 01:00:03;;;;;;;;;;;7.70;99.90;;;;;;5119700;27;20275;-81
2022/10/04 01:02:35;;;;;;;;;;;7.70;99.90;;;;;;5107425;27;19911;-80
2022/10/04 01:05:09;;;;;;;;;;;7.70;99.90;;;;;;5114355;27;19914;-81
2022/10/04 01:07:37;;;;;;;;;;;7.70;99.90;;;;;;5118176;27;19907;-81
2022/10/04 01:10:17;;;;;;;;;;;7.70;99.90;;;;;;5115047;27;20066;-81
2022/10/04 01:12:42;;;;;;;;;;;7.70;99.90;;;;;;5113338;27;19911;-81
2022/10/04 01:15:08;;;;;;;;;;;7.60;99.90;;;;;;5121096;27;19919;-81
2022/10/04 01:17:33;;;;;;;;;;;7.60;99.90;;;;;;5117980;27;20252;-81
2022/10/04 01:19:59;;;;;;;;;;;7.60;99.90;;;;;;5114608;27;19986;-81
2022/10/04 01:22:30;;;;;;;;;;;7.60;99.90;;;;;;5113915;27;19946;-81
2022/10/04 01:24:56;;;;;;;;;;;7.60;99.90;;;;;;5122060;27;20064;-81
2022/10/04 01:27:30;;;;;;;;;;;7.60;99.90;;;;;;5119080;27;20363;-81
2022/10/04 01:29:57;;;;;;;;;;;7.60;99.90;;;;;;5109935;28;20383;-81
2022/10/04 01:32:22;;;;;;;;;;;7.60;99.90;;;;;;5118007;27;19951;-80
2022/10/04 01:34:48;;;;;;;;;;;7.60;99.90;;;;;;5124319;27;19945;-81
2022/10/04 01:37:14;;;;;;;;;;;7.70;99.90;;;;;;5120700;27;19958;-80
2022/10/04 01:39:39;;;;;;;;;;;7.70;99.90;;;;;;5128571;27;19992;-81
2022/10/04 01:42:08;;;;;;;;;;;7.70;99.90;;;;;;5115679;27;19915;-80
2022/10/04 01:44:40;;;;;;;;;;;7.70;99.90;;;;;;5122034;27;19907;-81
2022/10/04 01:47:15;;;;;;;;;;;7.80;99.90;;;;;;5126064;27;20417;-81
2022/10/04 01:49:42;;;;;;;;;;;7.80;99.90;;;;;;5123268;27;20366;-81
2022/10/04 01:52:14;;;;;;;;;;;7.90;99.90;;;;;;5114208;28;19943;-80
2022/10/04 01:54:45;;;;;;;;;;;7.90;99.90;;;;;;5116714;27;20003;-81
2022/10/04 01:57:20;;;;;;;;;;;7.80;99.90;;;;;;5120336;27;19918;-81
2022/10/04 01:59:45;;;;;;;;;;;7.80;99.90;;;;;;5121213;27;19915;-81
2022/10/04 02:02:16;;;;;;;;;;;7.80;99.90;;;;;;5111252;28;20116;-80
2022/10/04 02:04:43;;;;;;;;;;;7.80;99.90;;;;;;5123870;28;19942;-81
2022/10/04 02:07:12;;;;;;;;;;;7.80;99.90;;;;;;5114674;27;19907;-80
2022/10/04 02:09:41;;;;;;;;;;;7.80;99.90;;;;;;5119794;27;19902;-81
2022/10/04 02:12:08;;;;;;;;;;;7.80;99.90;;;;;;5122148;27;19915;-81
2022/10/04 02:14:34;;;;;;;;;;;7.80;99.90;;;;;;5109586;27;19913;-80
2022/10/04 02:17:01;;;;;;;;;;;7.80;99.90;;;;;;5120068;27;19916;-80
2022/10/04 02:19:32;;;;;;;;;;;7.80;99.90;;;;;;5115092;27;19907;-81
2022/10/04 02:21:57;;;;;;;;;;;7.80;99.90;;;;;;5121033;27;19916;-81
2022/10/04 02:24:23;;;;;;;;;;;7.90;99.90;;;;;;5125484;27;19918;-80
2022/10/04 02:26:50;;;;;;;;;;;7.80;99.90;;;;;;5110462;27;20372;-80
2022/10/04 02:29:15;;;;;;;;;;;7.80;99.90;;;;;;5113064;27;19911;-79
2022/10/04 02:34:25;;;;;;;;;;;7.80;99.90;;;;;;5124744;27;19918;-80
2022/10/04 02:36:51;;;;;;;;;;;7.80;99.90;;;;;;5117667;27;19919;-80
2022/10/04 02:39:29;;;;;;;;;;;7.70;99.90;;;;;;5120872;27;19960;-80
2022/10/04 02:41:57;;;;;;;;;;;7.70;99.90;;;;;;5119372;27;19961;-79
2022/10/04 02:44:23;;;;;;;;;;;7.60;99.90;;;;;;5124121;27;20387;-80
2022/10/04 02:47:07;;;;;;;;;;;7.60;99.90;;;;;;5115773;27;19977;-80
2022/10/04 02:49:33;;;;;;;;;;;7.60;99.90;;;;;;5111173;27;19911;-80
2022/10/04 02:52:21;;;;;;;;;;;7.60;99.90;;;;;;5126267;27;20271;-79
2022/10/04 02:54:53;;;;;;;;;;;7.60;99.90;;;;;;5103944;27;20380;-80
2022/10/04 02:57:20;;;;;;;;;;;7.60;99.90;;;;;;5116735;27;19918;-80
2022/10/04 02:59:46;;;;;;;;;;;7.70;99.90;;;;;;5119486;27;19917;-79
2022/10/04 03:02:28;;;;;;;;;;;7.60;99.90;;;;;;5124699;27;20354;-80
2022/10/04 03:04:56;;;;;;;;;;;7.70;99.90;;;;;;5121776;27;19938;-80
2022/10/04 03:07:22;;;;;;;;;;;7.60;99.90;;;;;;5112269;27;19943;-80
2022/10/04 03:09:48;;;;;;;;;;;7.60;99.90;;;;;;5107237;27;19966;-80
2022/10/04 03:12:14;;;;;;;;;;;7.60;99.90;;;;;;5113422;27;20375;-80
2022/10/04 03:14:40;;;;;;;;;;;7.70;99.90;;;;;;5117632;27;19994;-80
2022/10/04 03:17:06;;;;;;;;;;;7.70;99.90;;;;;;5112012;27;20284;-79
2022/10/04 03:19:32;;;;;;;;;;;7.70;99.90;;;;;;5114567;27;19907;-80
2022/10/04 03:21:59;;;;;;;;;;;7.70;99.90;;;;;;5114637;27;19911;-80
2022/10/04 03:24:33;;;;;;;;;;;7.70;99.90;;;;;;5118342;27;20268;-79
2022/10/04 03:27:01;;;;;;;;;;;7.70;99.90;;;;;;5115669;27;19914;-80
2022/10/04 03:29:30;;;;;;;;;;;7.70;99.90;;;;;;5120542;27;21261;-80
2022/10/04 03:31:57;;;;;;;;;;;7.80;99.90;;;;;;5114669;27;19923;-79
2022/10/04 03:34:27;;;;;;;;;;;7.70;99.90;;;;;;5119509;27;20382;-80
2022/10/04 03:36:55;;;;;;;;;;;7.80;99.90;;;;;;5116547;27;19911;-80
2022/10/04 03:39:40;;;;;;;;;;;7.80;99.90;;;;;;5120208;27;20212;-80
2022/10/04 03:42:14;;;;;;;;;;;7.80;99.90;;;;;;5117098;27;19959;-80
2022/10/04 03:44:41;;;;;;;;;;;7.80;99.90;;;;;;5116489;27;19907;-80
2022/10/04 03:47:09;;;;;;;;;;;7.80;99.90;;;;;;5111890;27;19919;-79
2022/10/04 03:49:36;;;;;;;;;;;7.80;99.90;;;;;;5119299;27;19995;-76
2022/10/04 03:52:02;;;;;;;;;;;7.80;99.90;;;;;;5123149;27;20011;-74
2022/10/04 03:54:29;;;;;;;;;;;7.90;99.90;;;;;;5133023;27;19926;-76
2022/10/04 03:56:55;;;;;;;;;;;7.80;99.90;;;;;;5122229;27;19907;-75
2022/10/04 03:59:23;;;;;;;;;;;7.90;99.90;;;;;;5119242;27;20382;-80
2022/10/04 04:01:53;;;;;;;;;;;7.90;99.90;;;;;;5116845;27;19907;-80
2022/10/04 04:04:28;;;;;;;;;;;7.80;99.90;;;;;;5114776;27;20002;-80
2022/10/04 04:06:56;;;;;;;;;;;7.90;99.90;;;;;;5110090;27;20250;-80
2022/10/04 04:09:31;;;;;;;;;;;7.90;99.90;;;;;;5124310;27;19925;-80
2022/10/04 04:11:58;;;;;;;;;;;8.00;99.90;;;;;;5110087;27;19907;-80
2022/10/04 04:14:25;;;;;;;;;;;8.00;99.90;;;;;;5121739;27;19911;-80
2022/10/04 04:16:51;;;;;;;;;;;7.90;99.90;;;;;;5119203;27;20363;-80
2022/10/04 04:19:19;;;;;;;;;;;8.00;99.90;;;;;;5124121;27;20351;-81
2022/10/04 04:21:45;;;;;;;;;;;8.00;99.90;;;;;;5121700;27;20099;-80
2022/10/04 04:24:13;;;;;;;;;;;7.90;99.90;;;;;;5124391;27;19912;-81
2022/10/04 04:26:48;;;;;;;;;;;7.90;99.90;;;;;;5105228;27;20436;-81
2022/10/04 04:29:21;;;;;;;;;;;7.90;99.90;;;;;;5117746;27;20249;-81
2022/10/04 04:32:04;;;;;;;;;;;7.80;99.90;;;;;;5124277;27;20415;-81
2022/10/04 04:34:31;;;;;;;;;;;7.80;99.90;;;;;;5136297;27;19928;-81
2022/10/04 04:36:58;;;;;;;;;;;7.80;99.90;;;;;;5124000;27;19934;-80
2022/10/04 04:39:42;;;;;;;;;;;7.80;99.90;;;;;;5122685;27;20347;-81
2022/10/04 04:42:14;;;;;;;;;;;7.80;99.90;;;;;;5124761;27;20351;-80
2022/10/04 04:44:48;;;;;;;;;;;7.80;99.90;;;;;;5119491;27;20377;-80
2022/10/04 04:47:34;;;;;;;;;;;7.80;99.90;;;;;;5113531;27;19907;-80
2022/10/04 04:50:14;;;;;;;;;;;7.80;99.90;;;;;;5119206;27;19929;-80
2022/10/04 04:52:41;;;;;;;;;;;7.80;99.90;;;;;;5114449;27;19904;-81
2022/10/04 04:55:14;;;;;;;;;;;7.80;99.90;;;;;;5115008;27;19912;-81
2022/10/04 04:57:40;;;;;;;;;;;7.80;99.90;;;;;;5115917;27;20141;-80
2022/10/04 05:00:06;;;;;;;;;;;7.80;99.90;;;;;;5122618;27;19914;-80
2022/10/04 05:02:35;;;;;;;;;;;7.80;99.90;;;;;;5110239;27;20006;-81
2022/10/04 05:05:18;;;;;;;;;;;7.80;99.90;;;;;;5118896;27;19915;-81
2022/10/04 05:07:43;;;;;;;;;;;7.80;99.90;;;;;;5123124;27;19907;-81
2022/10/04 05:10:39;;;;;;;;;;;7.80;99.90;;;;;;5104375;27;19905;-81
2022/10/04 05:13:06;;;;;;;;;;;7.80;99.90;;;;;;5091787;27;20274;-80
2022/10/04 05:15:36;;;;;;;;;;;7.80;99.90;;;;;;5129437;27;20373;-80
2022/10/04 05:18:13;;;;;;;;;;;7.80;99.90;;;;;;5116609;27;19915;-80
2022/10/04 05:20:40;;;;;;;;;;;7.70;99.90;;;;;;5110523;27;19919;-80
2022/10/04 05:23:10;;;;;;;;;;;7.70;99.90;;;;;;5122141;27;20455;-80
2022/10/04 05:25:35;;;;;;;;;;;7.70;99.90;;;;;;5112075;27;20294;-81
2022/10/04 05:28:01;;;;;;;;;;;7.70;99.90;;;;;;5099378;27;19922;-80
2022/10/04 05:30:40;;;;;;;;;;;7.70;99.90;;;;;;5092392;28;20504;-80
2022/10/04 05:33:07;;;;;;;;;;;7.80;99.90;;;;;;5111720;27;22100;-80
2022/10/04 05:35:41;;;;;;;;;;;7.70;99.90;;;;;;5115795;28;19911;-79
2022/10/04 05:38:07;;;;;;;;;;;7.70;99.90;;;;;;5111397;27;19915;-80
2022/10/04 05:40:45;;;;;;;;;;;7.70;99.90;;;;;;5100996;28;19908;-80
2022/10/04 05:43:40;;;;;;;;;;;7.70;99.90;;;;;;5109257;28;19958;-80
2022/10/04 05:46:25;;;;;;;;;;;7.70;99.90;;;;;;5086171;28;20113;-80
2022/10/04 05:48:57;;;;;;;;;;;7.70;99.90;;;;;;5100233;28;19950;-80
2022/10/04 05:51:22;;;;;;;;;;;7.70;99.90;;;;;;5108768;27;19912;-80
2022/10/04 05:53:51;;;;;;;;;;;7.70;99.90;;;;;;5112750;28;20348;-80
2022/10/04 05:56:28;;;;;;;;;;;7.70;99.90;;;;;;5106393;28;19912;-81
2022/10/04 05:58:54;;;;;;;;;;;7.60;99.90;;;;;;5103487;28;20619;-81
2022/10/04 06:01:22;;;;;;;;;;;7.60;99.90;;;;;;5105531;28;20027;-80
2022/10/04 06:03:56;;;;;;;;;;;7.60;99.90;;;;;;5111620;28;19965;-80
2022/10/04 06:06:40;;;;;;;;;;;7.60;99.90;;;;;;5110786;27;20008;-80
2022/10/04 06:09:12;;;;;;;;;;;7.60;99.90;;;;;;5112461;27;22310;-81
2022/10/04 06:12:00;;;;;;;;;;;7.60;99.90;;;;;;5114512;27;20359;-80
2022/10/04 06:14:34;;;;;;;;;;;7.70;99.90;;;;;;5113785;27;20293;-81
2022/10/04 06:17:02;;;;;;;;;;;7.70;99.90;;;;;;5119232;27;19939;-80
2022/10/04 06:19:47;;;;;;;;;;;7.70;99.90;;;;;;5118529;27;20456;-80
2022/10/04 06:22:12;;;;;;;;;;;7.80;99.90;;;;;;5112409;27;19973;-81
2022/10/04 06:24:39;;;;;;;;;;;7.80;99.90;;;;;;5112241;27;21280;-81
2022/10/04 06:27:12;;;;;;;;;;;7.80;99.90;;;;;;5114700;27;20353;-80
2022/10/04 06:29:42;;;;;;;;;;;7.80;99.90;;;;;;5116925;27;19908;-80
2022/10/04 06:32:18;;;;;;;;;;;7.80;99.90;;;;;;5127226;27;20222;-80
2022/10/04 06:35:03;;;;;;;;;;;7.80;99.90;;;;;;5119533;27;19907;-82
2022/10/04 06:37:37;;;;;;;;;;;7.90;99.90;;;;;;5122985;27;20147;-82
2022/10/04 06:40:24;;;;;;;;;;;8.00;99.90;;;;;;5112768;27;19919;-82
2022/10/04 06:42:53;;;;;;;;;;;8.00;99.90;;;;;;5117156;27;19919;-82
2022/10/04 06:45:28;;;;;;;;;;;8.10;99.90;;;;;;5130118;27;20293;-82
2022/10/04 06:48:02;;;;;;;;;;;8.10;99.90;;;;;;5109005;27;19919;-82
2022/10/04 06:50:34;;;;;;;;;;;8.20;99.90;;;;;;5122417;27;19981;-82
2022/10/04 06:53:15;;;;;;;;;;;8.20;99.90;;;;;;5119940;27;19960;-82
2022/10/04 06:56:04;;;;;;;;;;;8.30;99.90;;;;;;5124014;27;19904;-82
2022/10/04 06:58:48;;;;;;;;;;;8.40;99.90;;;;;;5107099;27;19918;-82
2022/10/04 07:01:21;;;;;;;;;;;8.50;99.90;;;;;;5125160;27;19956;-82
2022/10/04 07:03:52;;;;;;;;;;;8.50;99.90;;;;;;5115272;27;20134;-82
2022/10/04 07:06:34;;;;;;;;;;;8.50;99.90;;;;;;5126682;27;19990;-83
2022/10/04 07:09:01;;;;;;;;;;;8.60;99.90;;;;;;5118933;27;20298;-82
2022/10/04 07:11:46;;;;;;;;;;;8.70;99.90;;;;;;5129358;27;19914;-81
2022/10/04 07:14:11;;;;;;;;;;;8.80;99.90;;;;;;5136129;27;19913;-82
2022/10/04 07:16:41;;;;;;;;;;;8.90;99.90;;;;;;5135222;27;20186;-81
2022/10/04 07:19:25;;;;;;;;;;;9.00;99.90;;;;;;5124419;27;20006;-82
2022/10/04 07:21:53;;;;;;;;;;;9.00;99.90;;;;;;5115218;27;19907;-82
2022/10/04 07:24:42;;;;;;;;;;;9.00;99.90;;;;;;5109544;27;19908;-82
2022/10/04 07:27:12;;;;;;;;;;;9.10;99.90;;;;;;5059324;27;20482;-82
2022/10/04 07:29:40;;;;;;;;;;;9.10;99.90;;;;;;5122863;27;20238;-81
2022/10/04 07:32:20;;;;;;;;;;;9.10;99.90;;;;;;5122004;27;19939;-82
2022/10/04 07:35:01;;;;;;;;;;;9.10;99.90;;;;;;5115081;27;20005;-82
2022/10/04 07:37:28;;;;;;;;;;;9.20;99.90;;;;;;5124086;27;19915;-81
2022/10/04 07:40:07;;;;;;;;;;;9.20;99.90;;;;;;5101873;27;20316;-82
2022/10/04 07:42:38;;;;;;;;;;;9.10;99.90;;;;;;5128982;27;19918;-82
2022/10/04 07:45:16;;;;;;;;;;;9.20;99.90;;;;;;5118453;27;19907;-82
2022/10/04 07:47:42;;;;;;;;;;;9.20;99.90;;;;;;5124024;27;19908;-82
2022/10/04 07:50:30;;;;;;;;;;;9.20;99.90;;;;;;5117284;27;20379;-82
2022/10/04 07:52:56;;;;;;;;;;;9.30;99.90;;;;;;5103673;27;19962;-79
2022/10/04 07:55:24;;;;;;;;;;;9.40;99.90;;;;;;5111880;27;19915;-79
2022/10/04 07:57:50;;;;;;;;;;;9.40;99.90;;;;;;5128066;27;19997;-79
2022/10/04 08:00:47;;;;;;;;;;;9.40;99.90;;;;;;5113793;27;20415;-79
2022/10/04 08:03:21;;;;;;;;;;;9.40;99.90;;;;;;5052673;28;19995;-79
2022/10/04 08:06:10;;;;;;;;;;;9.50;99.90;;;;;;5128522;27;20502;-79
2022/10/04 08:08:45;;;;;;;;;;;9.60;99.90;;;;;;5101444;27;19915;-79
2022/10/04 08:11:30;;;;;;;;;;;9.70;99.90;;;;;;5108148;28;20344;-79
2022/10/04 08:13:58;;;;;;;;;;;9.80;99.90;;;;;;5119439;27;20352;-79
2022/10/04 08:16:33;;;;;;;;;;;9.90;99.90;;;;;;5114815;27;19963;-79
2022/10/04 08:19:16;;;;;;;;;;;9.90;99.90;;;;;;5109465;27;20456;-80
2022/10/04 08:21:51;;;;;;;;;;;9.90;99.90;;;;;;5126108;27;19914;-79
2022/10/04 08:24:25;;;;;;;;;;;10.00;99.90;;;;;;5132788;27;20427;-79
2022/10/04 08:27:17;;;;;;;;;;;10.10;99.90;;;;;;5112984;27;19961;-80
2022/10/04 08:30:00;;;;;;;;;;;10.20;99.90;;;;;;5105439;28;19906;-79
2022/10/04 08:32:44;;;;;;;;;;;10.20;99.90;;;;;;5123788;27;19907;-80
2022/10/04 08:35:48;;;;;;;;;;;10.30;99.90;;;;;;5111040;27;19907;-79
2022/10/04 08:38:13;;;;;;;;;;;10.20;99.90;;;;;;5042405;28;20488;-79
2022/10/04 08:40:40;;;;;;;;;;;10.20;99.90;;;;;;5044920;28;19944;-79
2022/10/04 08:43:14;;;;;;;;;;;10.20;99.90;;;;;;5058899;27;20188;-79
2022/10/04 08:45:43;;;;;;;;;;;10.30;99.90;;;;;;5110248;27;19915;-79
2022/10/04 08:48:45;;;;;;;;;;;10.40;99.90;;;;;;5120924;27;19903;-79
2022/10/04 08:51:29;;;;;;;;;;;10.40;99.90;;;;;;5014475;28;19909;-79
2022/10/04 08:54:13;;;;;;;;;;;10.40;99.90;;;;;;5104754;27;19908;-80
2022/10/04 08:56:41;;;;;;;;;;;10.40;99.90;;;;;;5105668;27;19911;-79
2022/10/04 08:59:16;;;;;;;;;;;10.40;99.90;;;;;;5121862;27;19903;-79
2022/10/04 09:01:50;;;;;;;;;;;10.50;99.90;;;;;;5109019;27;19910;-79
2022/10/04 09:04:27;;;;;;;;;;;10.60;99.90;;;;;;5136496;27;19930;-79
2022/10/04 09:06:59;;;;;;;;;;;10.70;99.90;;;;;;5124067;27;20375;-79
2022/10/04 09:09:34;;;;;;;;;;;10.70;99.90;;;;;;5138900;27;19995;-79
2022/10/04 09:12:19;;;;;;;;;;;10.80;99.90;;;;;;5121316;27;19904;-79
2022/10/04 09:15:03;;;;;;;;;;;10.90;99.90;;;;;;5108603;27;19988;-77
2022/10/04 09:17:40;;;;;;;;;;;11.10;99.90;;;;;;5109429;27;19923;-77
2022/10/04 09:20:19;;;;;;;;;;;11.30;99.90;;;;;;5115446;27;19926;-77
2022/10/04 09:22:56;;;;;;;;;;;11.50;99.90;;;;;;5119465;27;19939;-77
2022/10/04 09:25:38;;;;;;;;;;;11.70;99.90;;;;;;5103557;27;19922;-77
2022/10/04 09:29:51;;;;;;;16.67;10.82;;;;;;;;;;5048176;28;20397;-76
2022/10/04 09:33:14;;;;;;;16.40;11.23;;;12.30;99.90;;;;;;5050428;28;20037;-76
2022/10/04 09:35:45;;;;;;;18.88;11.00;;;12.50;99.90;;;;;;5026153;28;20031;-76
2022/10/04 09:38:17;;;;;;;17.08;11.52;;;12.70;99.90;;;;;;5023419;28;20021;-76
2022/10/04 09:41:00;;;;;;;16.15;10.85;;;12.80;99.90;;;;;;5037541;28;20183;-76
2022/10/04 09:43:56;;;;;;;17.23;10.70;;;12.90;99.90;;;;;;5050134;28;20029;-76
2022/10/04 09:47:03;;;;;;;15.85;10.45;;;12.90;99.90;;;;;;5041890;28;20051;-77
2022/10/04 09:49:36;;;;;;;14.48;10.00;;;13.10;99.90;;;;;;5044492;28;20083;-76
2022/10/04 09:52:02;;;;;;;;;;;13.20;99.90;;;;;;5044654;28;20501;-76
2022/10/04 09:54:30;;;;;;;17.67;10.15;;;13.30;99.90;;;;;;5042712;28;19975;-76
2022/10/04 09:57:32;;;;;;;16.58;10.77;;;13.40;99.90;;;;;;5042275;28;20628;-76
2022/10/04 10:00:01;;;;;;;18.02;10.35;;;13.50;99.90;;;;;;5048684;28;20025;-76
2022/10/04 10:02:49;;;;;;;16.77;10.32;;;13.60;99.90;;;;;;5044215;28;20033;-76
2022/10/04 10:05:58;;;;;;;16.35;10.02;;;13.80;99.90;;;;;;5045200;28;20378;-76
2022/10/04 10:08:35;;;;;;;21.73;12.90;;;13.90;99.90;;;;;;5047350;28;20037;-75
2022/10/04 10:14:46;;;;;;;15.43;9.18;;;14.00;99.90;;;;;;5053616;28;20028;-77
2022/10/04 10:17:39;;;;;;;14.68;8.82;;;14.10;99.90;;;;;;5045835;28;20688;-77
2022/10/04 10:20:32;;;;;;;16.38;9.50;;;14.20;99.90;;;;;;5044975;28;20464;-77
2022/10/04 10:23:18;;;;;;;16.42;10.07;;;14.30;99.90;;;;;;5048255;28;20017;-77
2022/10/04 10:26:21;;;;;;;15.10;8.20;;;14.40;99.90;;;;;;5044847;28;20042;-77
2022/10/04 10:29:15;;;;;;;19.42;6.53;;;14.50;99.90;;;;;;5038992;28;20456;-76
2022/10/04 10:31:56;;;;;;;15.90;6.97;;;14.70;99.90;;;;;;5042620;28;20107;-77
2022/10/04 10:34:47;;;;;;;13.60;6.28;;;14.70;99.90;;;;;;5046087;28;20028;-76
2022/10/04 10:37:29;;;;;;;16.27;6.70;;;14.80;99.90;;;;;;5044742;28;20462;-77
2022/10/04 10:40:04;;;;;;;13.32;6.63;;;14.90;99.90;;;;;;5037698;28;20044;-77
2022/10/04 10:42:53;;;;;;;13.93;6.60;;;15.00;99.90;;;;;;5031192;28;20586;-77
2022/10/04 10:45:55;;;;;;;11.45;5.70;;;15.00;99.90;;;;;;5032360;28;20036;-77
2022/10/04 10:48:30;;;;;;;10.32;4.65;;;15.20;99.90;;;;;;5032999;28;20553;-78
2022/10/04 10:51:14;;;;;;;7.57;4.25;;;15.30;99.90;;;;;;5032618;28;20119;-77
2022/10/04 10:53:55;;;;;;;8.85;4.60;;;15.40;99.90;;;;;;5029019;28;20470;-77
2022/10/04 10:56:55;;;;;;;9.50;5.05;;;15.50;99.90;;;;;;5026037;28;20043;-77
2022/10/04 10:59:39;;;;;;;8.70;4.78;;;15.60;99.90;;;;;;5028732;28;20033;-78
2022/10/04 11:02:14;;;;;;;14.00;6.82;;;15.60;99.90;;;;;;5040148;28;20120;-77
2022/10/04 11:04:39;;;;;;;12.07;4.72;;;15.70;99.90;;;;;;5034617;28;20068;-78
2022/10/04 11:07:21;;;;;;;10.90;5.07;;;15.70;99.90;;;;;;5032098;28;20056;-78
2022/10/04 11:10:29;;;;;;;9.25;4.70;;;15.80;99.90;;;;;;5029239;28;20086;-77
2022/10/04 11:13:24;;;;;;;12.20;4.78;;;15.80;99.90;;;;;;5029042;28;20056;-78
2022/10/04 11:16:28;;;;;;;8.35;4.80;;;15.90;99.90;;;;;;5030734;28;20091;-78
2022/10/04 11:19:03;;;;;;;11.38;4.40;;;16.00;99.90;;;;;;5034876;28;20041;-78
2022/10/04 11:21:53;;;;;;;8.30;4.10;;;16.10;99.90;;;;;;4677434;28;10000406;-79
2022/10/04 11:24:50;;;;;;;9.35;4.18;;;16.10;99.90;;;;;;5025813;28;20617;-81
2022/10/04 11:27:48;;;;;;;9.00;4.10;;;16.20;99.90;;;;;;5019468;28;20036;-80
2022/10/04 11:30:25;;;;;;;6.93;3.70;;;16.30;99.90;;;;;;5033127;28;20056;-83
2022/10/04 11:33:02;;;;;;;11.50;4.18;;;16.40;99.90;;;;;;5033791;28;20425;-82
2022/10/04 11:35:53;;;;;;;12.02;4.45;;;16.40;99.90;;;;;;5028487;28;20060;-81
2022/10/04 11:38:26;;;;;;;10.50;5.95;;;16.50;99.90;;;;;;5019443;28;22015;-84
2022/10/04 11:41:09;;;;;;;8.48;4.35;;;16.50;99.90;;;;;;5022513;28;20037;-78
2022/10/04 11:43:41;;;;;;;;;;;16.60;99.90;;;;;;5026857;28;20075;-78
2022/10/04 11:46:12;;;;;;;11.30;4.18;;;16.70;99.90;;;;;;5027372;28;20325;-77
2022/10/04 11:49:03;;;;;;;8.65;3.33;;;16.70;99.90;;;;;;5023139;28;20033;-82
2022/10/04 11:51:47;;;;;;;7.75;3.00;;;16.70;99.90;;;;;;5029094;28;20194;-79
2022/10/04 11:54:37;;;;;;;8.40;3.60;;;16.80;99.90;;;;;;5033680;28;20477;-79
2022/10/04 11:57:03;;;;;;;7.30;3.72;;;16.90;99.90;;;;;;5032211;28;20041;-78
2022/10/04 11:59:54;;;;;;;6.78;3.80;;;17.00;99.90;;;;;;5027860;28;20022;-84
2022/10/04 12:02:41;;;;;;;8.23;3.75;;;17.10;99.90;;;;;;5027758;28;20129;-81
2022/10/04 12:05:24;;;;;;;9.52;3.70;;;17.20;99.90;;;;;;5028923;28;20033;-78
2022/10/04 12:08:08;;;;;;;8.00;3.03;;;17.30;99.90;;;;;;5022917;28;20038;-83
2022/10/04 12:10:37;;;;;;;6.85;2.85;;;17.40;99.90;;;;;;5030160;28;20021;-81
2022/10/04 12:13:05;;;;;;;9.23;3.15;;;17.50;99.90;;;;;;5030082;28;20497;-80
2022/10/04 12:15:48;;;;;;;5.32;3.10;;;17.60;99.90;;;;;;5013948;28;20021;-83
2022/10/04 12:18:22;;;;;;;13.13;3.57;;;17.60;99.90;;;;;;5023579;28;20458;-80
2022/10/04 12:21:12;;;;;;;6.50;2.88;;;17.70;99.90;;;;;;5023805;28;20330;-76
2022/10/04 12:23:47;;;;;;;8.90;3.25;;;17.70;99.90;;;;;;5026028;28;20037;-83
2022/10/04 12:26:18;;;;;;;5.15;2.75;;;17.80;99.90;;;;;;5029169;28;20448;-82
2022/10/04 12:28:55;;;;;;;5.18;2.78;;;17.80;99.90;;;;;;5022478;28;20039;-83
2022/10/04 12:31:30;;;;;;;5.68;2.80;;;17.80;99.90;;;;;;5029330;28;20033;-78
2022/10/04 12:34:12;;;;;;;5.15;2.80;;;17.80;99.90;;;;;;5026245;28;20082;-83
2022/10/04 12:36:52;;;;;;;7.05;2.78;;;17.90;99.90;;;;;;5029609;28;20032;-81
2022/10/04 12:39:30;;;;;;;6.32;2.60;;;17.90;99.90;;;;;;5025811;28;20029;-83
2022/10/04 12:42:22;;;;;;;3.35;2.22;;;17.90;99.90;;;;;;5023674;28;20064;-82
2022/10/04 12:45:29;;;;;;;6.72;2.40;;;18.00;99.90;;;;;;5024483;28;20086;-80
2022/10/04 12:48:14;;;;;;;4.28;2.17;;;18.00;99.90;;;;;;5024725;28;20040;-80
2022/10/04 12:51:01;;;;;;;3.47;1.90;;;18.00;99.90;;;;;;5024072;28;20040;-81
2022/10/04 12:53:45;;;;;;;6.68;2.03;;;18.00;99.90;;;;;;5027961;28;20370;-80
2022/10/04 12:56:21;;;;;;;4.28;2.17;;;18.00;99.90;;;;;;5022595;28;20397;-80
2022/10/04 12:59:11;;;;;;;15.52;9.35;;;18.10;99.90;;;;;;5027155;28;20021;-80
2022/10/04 13:02:03;;;;;;;6.90;3.53;;;18.20;99.90;;;;;;5034304;28;20044;-79
2022/10/04 13:04:45;;;;;;;7.72;2.60;;;18.30;99.90;;;;;;5028239;28;20086;-80
2022/10/04 13:07:43;;;;;;;6.43;1.80;;;18.20;99.90;;;;;;5035852;28;20304;-80
2022/10/04 13:10:20;;;;;;;3.28;1.65;;;18.20;99.90;;;;;;5025038;28;20084;-80
2022/10/04 13:13:14;;;;;;;3.83;1.50;;;18.30;99.90;;;;;;5036078;28;20033;-81
2022/10/04 13:15:57;;;;;;;5.57;2.10;;;18.40;99.90;;;;;;5032030;28;20053;-80
2022/10/04 13:18:22;;;;;;;3.70;1.80;;;18.40;99.90;;;;;;5025497;28;20044;-80
2022/10/04 13:21:04;;;;;;;4.05;1.60;;;18.40;99.90;;;;;;5027512;28;20251;-80
2022/10/04 13:23:54;;;;;;;3.78;1.67;;;18.50;99.90;;;;;;5023418;28;20496;-81
2022/10/04 13:26:38;;;;;;;6.25;2.17;;;18.40;99.90;;;;;;5031555;28;20413;-80
2022/10/04 13:29:13;;;;;;;5.95;2.10;;;18.30;99.90;;;;;;5026948;28;20120;-80
2022/10/04 13:32:16;;;;;;;7.32;2.40;;;18.20;99.90;;;;;;5027864;28;20223;-84
2022/10/04 13:34:55;;;;;;;4.38;1.70;;;18.10;99.90;;;;;;5028997;28;20159;-84
2022/10/04 13:37:37;;;;;;;5.78;1.98;;;18.10;99.90;;;;;;5025544;28;20025;-84
2022/10/04 13:40:31;;;;;;;6.83;1.87;;;18.10;99.90;;;;;;5030085;28;20022;-83
2022/10/04 13:43:13;;;;;;;;;;;18.00;99.90;;;;;;5030062;28;20017;-79
2022/10/04 13:46:01;;;;;;;6.68;2.20;;;17.90;99.90;;;;;;5027593;28;20380;-81
2022/10/04 13:48:35;;;;;;;4.45;2.10;;;17.90;99.90;;;;;;5035710;28;20142;-82
2022/10/04 13:51:13;;;;;;;6.13;2.05;;;18.00;99.90;;;;;;5026757;28;20355;-82
2022/10/04 13:56:43;;;;;;;6.15;1.70;;;17.90;99.90;;;;;;5029927;28;20700;-81
2022/10/04 13:59:18;;;;;;;4.40;1.80;;;17.80;99.90;;;;;;5023602;28;20033;-82
2022/10/04 14:02:14;;;;;;;3.53;1.60;;;17.70;99.90;;;;;;5031821;28;20600;-81
2022/10/04 14:04:50;;;;;;;4.60;1.73;;;17.60;99.90;;;;;;5034579;28;20037;-81
2022/10/04 14:07:49;;;;;;;24.25;2.85;;;17.60;99.90;;;;;;5024578;28;20050;-78
2022/10/04 14:10:54;;;;;;;3.42;1.70;;;17.50;99.90;;;;;;5031246;28;20044;-79
2022/10/04 14:13:59;;;;;;;4.43;2.00;;;17.50;99.90;;;;;;5031892;28;20049;-78
2022/10/04 14:16:24;;;;;;;12.82;5.25;;;17.50;99.90;;;;;;5034156;28;20021;-78
2022/10/04 14:19:15;;;;;;;33.25;6.28;;;17.50;99.90;;;;;;5031448;28;20037;-79
2022/10/04 14:22:16;;;;;;;5.38;2.50;;;17.40;99.90;;;;;;5031425;28;20525;-80
2022/10/04 14:25:09;;;;;;;3.95;1.90;;;17.40;99.90;;;;;;5037494;28;20489;-78
2022/10/04 14:27:58;;;;;;;5.25;1.60;;;17.30;99.90;;;;;;5028690;28;20052;-79
2022/10/04 14:31:07;;;;;;;3.20;1.60;;;17.20;99.90;;;;;;5031566;28;20760;-79
2022/10/04 14:34:01;;;;;;;6.30;2.10;;;17.20;99.90;;;;;;5061379;28;20039;-79
2022/10/04 14:36:46;;;;;;;;;;;17.10;99.90;;;;;;5033208;28;20100;-80
2022/10/04 14:39:47;;;;;;;3.70;1.60;;;17.00;99.90;;;;;;5034266;28;19909;-80
2022/10/04 14:42:33;;;;;;;4.55;1.83;;;17.00;99.90;;;;;;5034193;28;20040;-80
2022/10/04 14:45:36;;;;;;;6.63;1.90;;;17.00;99.90;;;;;;5035493;28;20028;-80
2022/10/04 14:48:23;;;;;;;3.08;1.48;;;16.90;99.90;;;;;;5029772;28;20159;-81
2022/10/04 14:51:03;;;;;;;3.90;1.85;;;16.80;99.90;;;;;;5037172;28;20033;-81
2022/10/04 14:53:28;;;;;;;4.43;1.75;;;16.80;99.90;;;;;;5032911;28;20242;-81
2022/10/04 14:55:54;;;;;;;4.30;1.70;;;;;;;;;;5031641;28;20068;-80